Time;durP1;ratioP1;P1;durP2;ratioP2;P2;SDS_P1;SDS_P2;PMS_P1;PMS_P2;Temp;Humidity;BMP_temperature;BMP_pressure;BME280_temperature;BME280_humidity;BME280_pressure;Samples;Min_cycle;Max_cycle;Signal;HPM_P1;HPM_P2
2020/12/12 00:01:00;;;;;;;9.98;7.53;;;9.30;68.10;;;;;;2096173;28;20043;-75
2020/12/12 00:02:21;;;;;;;8.90;7.47;;;9.30;68.00;;;;;;2104082;28;20024;-73
2020/12/12 00:03:42;;;;;;;8.05;7.20;;;9.30;68.00;;;;;;2100453;28;20060;-75
2020/12/12 00:05:03;;;;;;;10.57;7.57;;;9.30;68.00;;;;;;2096196;28;20090;-73
2020/12/12 00:06:24;;;;;;;9.18;7.80;;;9.30;67.90;;;;;;2094648;28;20021;-73
2020/12/12 00:07:45;;;;;;;9.07;7.20;;;9.30;67.90;;;;;;2096076;28;20036;-73
2020/12/12 00:09:06;;;;;;;7.45;6.60;;;9.30;67.80;;;;;;2096538;28;20041;-73
2020/12/12 00:10:26;;;;;;;8.60;7.07;;;9.30;67.70;;;;;;2105308;28;20040;-73
2020/12/12 00:11:49;;;;;;;10.50;7.60;;;9.20;67.60;;;;;;2099660;28;20032;-73
2020/12/12 00:13:10;;;;;;;9.90;7.00;;;9.20;67.60;;;;;;2095651;28;20051;-73
2020/12/12 00:14:31;;;;;;;8.55;7.22;;;9.20;67.60;;;;;;2096110;28;20035;-73
2020/12/12 00:15:52;;;;;;;8.40;7.40;;;9.20;67.60;;;;;;2095135;28;20048;-74
2020/12/12 00:17:13;;;;;;;8.68;7.60;;;9.20;67.60;;;;;;2095870;28;20521;-73
2020/12/12 00:18:34;;;;;;;8.52;7.03;;;9.20;67.70;;;;;;2096129;28;20055;-73
2020/12/12 00:19:55;;;;;;;7.78;6.93;;;9.20;67.70;;;;;;2086806;28;20039;-73
2020/12/12 00:21:21;;;;;;;8.80;7.47;;;9.30;67.80;;;;;;2092689;28;20386;-74
2020/12/12 00:22:42;;;;;;;8.95;7.18;;;9.20;68.20;;;;;;2095472;28;20428;-72
2020/12/12 00:24:03;;;;;;;8.95;7.35;;;9.20;67.80;;;;;;2097172;28;20107;-72
2020/12/12 00:25:24;;;;;;;11.45;8.05;;;9.20;67.80;;;;;;2103816;28;20667;-75
2020/12/12 00:26:45;;;;;;;8.90;8.00;;;9.20;67.70;;;;;;2098155;28;20068;-73
2020/12/12 00:28:06;;;;;;;11.32;7.50;;;9.20;67.80;;;;;;2104244;28;20731;-74
2020/12/12 00:29:27;;;;;;;11.82;7.82;;;9.20;67.80;;;;;;2098459;28;20020;-73
2020/12/12 00:30:48;;;;;;;9.25;7.55;;;9.20;67.80;;;;;;2095351;28;20458;-74
2020/12/12 00:32:09;;;;;;;9.48;7.63;;;9.20;67.70;;;;;;2096151;28;20600;-72
2020/12/12 00:33:30;;;;;;;10.32;8.25;;;9.20;67.80;;;;;;2088685;28;20056;-75
2020/12/12 00:34:51;;;;;;;8.10;7.28;;;9.20;67.70;;;;;;2091574;28;20032;-74
2020/12/12 00:36:12;;;;;;;8.90;7.68;;;9.20;67.80;;;;;;2095061;28;20036;-74
2020/12/12 00:37:33;;;;;;;9.65;7.65;;;9.10;67.70;;;;;;2095058;28;20599;-74
2020/12/12 00:38:54;;;;;;;9.23;7.80;;;9.10;67.80;;;;;;2084816;28;20037;-75
2020/12/12 00:40:14;;;;;;;10.60;7.63;;;9.10;67.80;;;;;;2093233;28;20044;-74
2020/12/12 00:41:37;;;;;;;11.55;8.75;;;9.10;67.80;;;;;;2096613;28;20058;-74
2020/12/12 00:42:58;;;;;;;9.65;7.68;;;9.10;67.80;;;;;;2083771;28;20363;-75
2020/12/12 00:44:19;;;;;;;8.75;7.85;;;9.10;67.80;;;;;;2091886;28;20094;-74
2020/12/12 00:45:48;;;;;;;10.95;7.80;;;9.10;67.80;;;;;;2095817;28;20860;-74
2020/12/12 00:47:08;;;;;;;9.13;7.38;;;9.10;68.00;;;;;;2084748;28;20052;-74
2020/12/12 00:48:29;;;;;;;10.23;7.88;;;9.10;67.90;;;;;;2092285;28;20070;-74
2020/12/12 00:49:50;;;;;;;10.32;8.00;;;9.10;67.80;;;;;;2095836;28;20059;-74
2020/12/12 00:51:11;;;;;;;10.00;7.50;;;9.10;67.70;;;;;;2103518;28;20089;-74
2020/12/12 00:52:32;;;;;;;8.82;7.70;;;9.10;67.70;;;;;;2089928;28;20060;-74
2020/12/12 00:53:53;;;;;;;10.40;7.60;;;9.00;67.60;;;;;;2094012;28;20039;-74
2020/12/12 00:55:14;;;;;;;9.38;7.78;;;9.00;67.60;;;;;;2095584;28;20029;-74
2020/12/12 00:56:35;;;;;;;8.82;7.50;;;9.00;67.60;;;;;;2094917;28;20048;-74
2020/12/12 00:57:56;;;;;;;9.13;7.20;;;9.00;67.70;;;;;;2096008;28;20032;-74
2020/12/12 00:59:18;;;;;;;11.13;8.73;;;9.00;67.70;;;;;;2096098;28;20544;-74
2020/12/12 01:00:39;;;;;;;8.40;7.50;;;9.00;67.70;;;;;;2095162;28;20031;-74
2020/12/12 01:02:00;;;;;;;10.27;7.60;;;9.00;67.90;;;;;;2096821;28;20083;-74
2020/12/12 01:03:21;;;;;;;9.00;8.10;;;9.00;67.90;;;;;;2095504;28;20029;-74
2020/12/12 01:04:42;;;;;;;7.93;6.90;;;9.00;68.00;;;;;;2096266;28;20021;-74
2020/12/12 01:06:03;;;;;;;8.70;7.32;;;9.00;68.10;;;;;;2096016;28;20406;-73
2020/12/12 01:07:24;;;;;;;9.73;7.45;;;9.00;68.20;;;;;;2095549;28;20351;-73
2020/12/12 01:08:46;;;;;;;9.48;7.68;;;9.00;68.20;;;;;;2095292;28;20515;-73
2020/12/12 01:10:07;;;;;;;8.48;7.45;;;9.00;68.20;;;;;;2097068;28;20455;-74
2020/12/12 01:11:27;;;;;;;10.68;8.05;;;9.00;68.20;;;;;;2096207;28;20040;-73
2020/12/12 01:12:50;;;;;;;9.02;7.88;;;9.00;68.20;;;;;;2095636;28;20028;-73
2020/12/12 01:14:10;;;;;;;9.30;7.75;;;9.00;68.30;;;;;;2094236;28;20116;-74
2020/12/12 01:15:31;;;;;;;9.65;7.38;;;9.00;68.40;;;;;;2102531;28;20461;-73
2020/12/12 01:16:52;;;;;;;9.38;7.47;;;9.00;68.40;;;;;;2103449;28;20058;-73
2020/12/12 01:18:13;;;;;;;8.82;7.68;;;9.00;68.40;;;;;;2104284;28;20792;-75
2020/12/12 01:19:34;;;;;;;10.38;8.02;;;9.00;68.40;;;;;;2104770;28;20028;-74
2020/12/12 01:20:55;;;;;;;9.02;7.03;;;9.00;68.50;;;;;;2104624;28;20115;-73
2020/12/12 01:22:16;;;;;;;8.80;7.10;;;9.00;68.40;;;;;;2103936;28;20501;-73
2020/12/12 01:23:36;;;;;;;8.20;7.30;;;9.00;68.50;;;;;;2104088;28;20024;-72
2020/12/12 01:24:57;;;;;;;9.07;7.40;;;9.10;68.50;;;;;;2103301;28;20085;-75
2020/12/12 01:26:18;;;;;;;11.23;7.75;;;9.10;68.60;;;;;;2103436;28;20115;-74
2020/12/12 01:27:39;;;;;;;11.63;7.47;;;9.10;68.50;;;;;;2103873;28;20143;-75
2020/12/12 01:29:00;;;;;;;10.50;7.20;;;9.10;68.50;;;;;;2102980;28;20593;-75
2020/12/12 01:30:21;;;;;;;9.52;7.25;;;9.10;68.50;;;;;;2104245;28;20496;-74
2020/12/12 01:31:42;;;;;;;8.38;7.45;;;9.10;68.40;;;;;;2103405;28;20036;-74
2020/12/12 01:33:03;;;;;;;8.18;7.20;;;9.10;68.40;;;;;;2104082;28;20055;-74
2020/12/12 01:34:24;;;;;;;6.25;5.32;;;9.10;68.40;;;;;;2104856;28;20362;-75
2020/12/12 01:35:44;;;;;;;8.25;7.35;;;9.10;68.40;;;;;;2104997;28;20036;-75
2020/12/12 01:37:05;;;;;;;8.77;7.03;;;9.10;68.40;;;;;;2104288;28;20111;-74
2020/12/12 01:38:26;;;;;;;8.63;7.22;;;9.20;68.50;;;;;;2095468;28;20450;-74
2020/12/12 01:39:47;;;;;;;10.05;7.82;;;9.20;68.40;;;;;;2101324;28;20147;-75
2020/12/12 01:41:08;;;;;;;7.55;6.80;;;9.20;68.40;;;;;;2104683;28;20031;-74
2020/12/12 01:42:32;;;;;;;7.03;6.32;;;9.20;68.50;;;;;;2104460;28;20038;-74
2020/12/12 01:43:53;;;;;;;8.50;6.70;;;9.20;68.40;;;;;;2103080;28;20107;-74
2020/12/12 01:45:14;;;;;;;10.13;7.25;;;9.20;68.40;;;;;;2104959;28;20024;-74
2020/12/12 01:46:35;;;;;;;11.02;6.95;;;9.20;68.30;;;;;;2094659;28;20028;-74
2020/12/12 01:47:57;;;;;;;9.63;7.30;;;9.20;68.40;;;;;;2100809;28;20045;-74
2020/12/12 01:49:18;;;;;;;8.13;7.30;;;9.20;68.40;;;;;;2103728;28;20111;-74
2020/12/12 01:50:39;;;;;;;8.85;7.47;;;9.20;68.30;;;;;;2103517;28;20047;-74
2020/12/12 01:52:01;;;;;;;8.40;7.32;;;9.20;68.30;;;;;;2092050;28;20052;-74
2020/12/12 01:53:26;;;;;;;7.78;6.97;;;9.30;69.10;;;;;;2101836;28;20385;-74
2020/12/12 01:54:47;;;;;;;7.68;6.75;;;9.30;68.40;;;;;;2104081;28;20090;-74
2020/12/12 01:56:09;;;;;;;10.10;7.00;;;9.30;68.30;;;;;;2094051;28;20462;-74
2020/12/12 01:57:30;;;;;;;9.25;6.85;;;9.30;68.30;;;;;;2101327;28;20149;-74
2020/12/12 01:58:52;;;;;;;8.63;6.97;;;9.30;68.30;;;;;;2102413;28;20032;-74
2020/12/12 02:00:13;;;;;;;9.75;7.13;;;9.30;68.30;;;;;;2104242;28;20089;-74
2020/12/12 02:01:38;;;;;;;8.32;6.93;;;9.30;68.30;;;;;;2102245;28;20378;-74
2020/12/12 02:03:03;;;;;;;10.43;7.25;;;9.30;68.40;;;;;;2104083;28;20074;-75
2020/12/12 02:04:25;;;;;;;7.13;6.43;;;9.30;68.20;;;;;;2102951;28;20026;-74
2020/12/12 02:05:46;;;;;;;8.05;6.40;;;9.30;68.20;;;;;;2102655;28;20024;-74
2020/12/12 02:07:07;;;;;;;7.07;6.38;;;9.30;68.20;;;;;;2103245;28;20103;-74
2020/12/12 02:08:29;;;;;;;7.82;6.60;;;9.30;68.20;;;;;;2104014;28;20032;-74
2020/12/12 02:09:49;;;;;;;8.52;6.63;;;9.30;68.20;;;;;;2103084;28;20036;-74
2020/12/12 02:11:12;;;;;;;7.13;6.43;;;9.30;68.20;;;;;;2102189;28;20361;-74
2020/12/12 02:12:33;;;;;;;7.43;6.50;;;9.30;68.20;;;;;;2104042;28;20051;-74
2020/12/12 02:13:58;;;;;;;7.80;6.32;;;9.40;68.30;;;;;;2103800;28;20051;-74
2020/12/12 02:15:18;;;;;;;6.78;5.93;;;9.40;68.30;;;;;;2103689;28;20048;-74
2020/12/12 02:16:57;;;;;;;7.10;6.40;;;9.40;68.30;;;;;;2102970;28;20128;-74
2020/12/12 02:18:23;;;;;;;9.20;6.63;;;9.40;68.50;;;;;;2104017;28;20067;-74
2020/12/12 02:19:44;;;;;;;6.93;6.07;;;9.40;68.30;;;;;;2110796;28;20028;-74
2020/12/12 02:21:05;;;;;;;9.90;6.43;;;9.40;68.20;;;;;;2110769;28;20020;-74
2020/12/12 02:22:26;;;;;;;7.13;6.40;;;9.40;68.30;;;;;;2111328;28;20074;-74
2020/12/12 02:23:47;;;;;;;7.90;6.30;;;9.40;68.30;;;;;;2112155;28;20601;-74
2020/12/12 02:25:08;;;;;;;9.05;6.60;;;9.40;68.30;;;;;;2112505;28;20059;-73
2020/12/12 02:26:29;;;;;;;8.18;6.97;;;9.40;68.30;;;;;;2111094;28;20028;-74
2020/12/12 02:27:52;;;;;;;6.68;5.75;;;9.40;68.30;;;;;;2111115;28;20031;-73
2020/12/12 02:29:13;;;;;;;7.82;6.38;;;9.40;68.30;;;;;;2109917;28;20070;-73
2020/12/12 02:30:34;;;;;;;7.43;6.60;;;9.40;68.30;;;;;;2111855;28;20422;-73
2020/12/12 02:31:55;;;;;;;7.68;6.45;;;9.40;68.30;;;;;;2111968;28;20038;-73
2020/12/12 02:33:16;;;;;;;7.68;6.30;;;9.40;68.30;;;;;;2112210;28;20051;-73
2020/12/12 02:34:37;;;;;;;6.65;5.97;;;9.40;68.30;;;;;;2102913;28;20100;-73
2020/12/12 02:35:58;;;;;;;6.07;5.47;;;9.50;68.40;;;;;;2109332;28;20032;-73
2020/12/12 02:37:19;;;;;;;6.95;6.13;;;9.50;68.40;;;;;;2111722;28;20693;-75
2020/12/12 02:38:42;;;;;;;7.55;6.82;;;9.50;69.00;;;;;;2109806;28;20039;-74
2020/12/12 02:40:05;;;;;;;6.82;6.13;;;9.50;68.30;;;;;;2110719;28;20343;-74
2020/12/12 02:41:25;;;;;;;6.63;5.82;;;9.50;68.30;;;;;;2112113;28;20108;-74
2020/12/12 02:42:46;;;;;;;8.77;6.55;;;9.50;68.30;;;;;;2111447;28;20027;-74
2020/12/12 02:44:07;;;;;;;7.43;6.63;;;9.40;68.30;;;;;;2110858;28;20768;-73
2020/12/12 02:45:28;;;;;;;6.97;5.85;;;9.40;68.30;;;;;;2111423;28;20118;-74
2020/12/12 02:46:49;;;;;;;6.93;6.13;;;9.50;68.40;;;;;;2108919;28;20855;-73
2020/12/12 02:48:10;;;;;;;8.80;6.55;;;9.50;68.40;;;;;;2111709;28;20032;-73
2020/12/12 02:49:31;;;;;;;7.63;6.72;;;9.50;68.40;;;;;;2112321;28;20477;-74
2020/12/12 02:50:52;;;;;;;6.80;6.10;;;9.50;68.30;;;;;;2111349;28;20027;-74
2020/12/12 02:52:13;;;;;;;7.10;6.40;;;9.50;68.30;;;;;;2111884;28;20062;-73
2020/12/12 02:53:33;;;;;;;7.10;6.40;;;9.50;68.30;;;;;;2111845;28;20032;-73
2020/12/12 02:54:54;;;;;;;7.30;6.20;;;9.50;68.30;;;;;;2110893;28;20461;-73
2020/12/12 02:56:16;;;;;;;7.15;6.15;;;9.50;68.30;;;;;;2102214;28;20165;-73
2020/12/12 02:57:38;;;;;;;6.57;5.80;;;9.50;68.30;;;;;;2107681;28;20023;-73
2020/12/12 02:58:58;;;;;;;6.60;5.88;;;9.50;68.30;;;;;;2102181;28;20040;-73
2020/12/12 03:00:23;;;;;;;6.85;6.10;;;9.60;68.40;;;;;;2108387;28;20028;-73
2020/12/12 03:01:44;;;;;;;6.50;5.57;;;9.50;68.40;;;;;;2109842;28;20024;-73
2020/12/12 03:03:05;;;;;;;6.47;5.43;;;9.60;68.40;;;;;;2111726;28;20913;-73
2020/12/12 03:04:25;;;;;;;8.15;5.85;;;9.60;68.40;;;;;;2113406;28;20032;-73
2020/12/12 03:05:46;;;;;;;6.85;5.88;;;9.60;68.40;;;;;;2112946;28;20088;-73
2020/12/12 03:07:07;;;;;;;5.95;5.38;;;9.50;68.30;;;;;;2113069;28;20736;-73
2020/12/12 03:08:28;;;;;;;6.85;6.10;;;9.60;68.30;;;;;;2113681;28;20032;-74
2020/12/12 03:09:49;;;;;;;7.43;6.55;;;9.60;68.30;;;;;;2112591;28;20111;-72
2020/12/12 03:11:10;;;;;;;6.13;5.18;;;9.60;68.30;;;;;;2103436;28;20050;-75
2020/12/12 03:12:32;;;;;;;6.45;5.57;;;9.60;68.40;;;;;;2109098;28;20411;-74
2020/12/12 03:13:53;;;;;;;6.35;5.70;;;9.60;68.40;;;;;;2113478;28;20039;-74
2020/12/12 03:15:14;;;;;;;5.90;5.20;;;9.60;68.40;;;;;;2111631;28;20024;-73
2020/12/12 03:16:35;;;;;;;6.60;5.88;;;9.60;68.40;;;;;;2111299;28;20035;-74
2020/12/12 03:17:55;;;;;;;6.07;5.43;;;9.60;68.40;;;;;;2112216;28;20346;-74
2020/12/12 03:19:16;;;;;;;6.00;5.22;;;9.60;68.40;;;;;;2112272;28;20063;-74
2020/12/12 03:20:37;;;;;;;5.95;5.38;;;9.60;68.50;;;;;;2103294;28;20024;-72
2020/12/12 03:21:58;;;;;;;6.85;5.72;;;9.60;68.40;;;;;;2109595;28;20024;-74
2020/12/12 03:23:19;;;;;;;6.00;5.40;;;9.60;68.40;;;;;;2113276;28;20497;-74
2020/12/12 03:24:40;;;;;;;6.13;5.53;;;9.60;68.40;;;;;;2113557;28;20028;-72
2020/12/12 03:26:01;;;;;;;5.80;5.22;;;9.60;68.40;;;;;;2112183;28;20066;-74
2020/12/12 03:27:22;;;;;;;5.85;5.35;;;9.60;68.50;;;;;;2113042;28;20438;-74
2020/12/12 03:28:43;;;;;;;6.38;5.78;;;9.60;68.50;;;;;;2112132;28;20038;-73
2020/12/12 03:30:04;;;;;;;7.88;5.95;;;9.60;68.50;;;;;;2111986;28;20031;-74
2020/12/12 03:31:25;;;;;;;6.22;5.57;;;9.60;68.50;;;;;;2112017;28;20085;-74
2020/12/12 03:32:45;;;;;;;6.88;5.70;;;9.60;68.50;;;;;;2103618;28;20412;-74
2020/12/12 03:34:06;;;;;;;6.45;5.30;;;9.60;68.60;;;;;;2108696;28;20042;-73
2020/12/12 03:35:28;;;;;;;7.07;5.65;;;9.60;68.60;;;;;;2111422;28;20042;-74
2020/12/12 03:36:49;;;;;;;7.13;5.80;;;9.60;68.60;;;;;;2112502;28;20031;-75
2020/12/12 03:38:10;;;;;;;5.93;5.32;;;9.60;68.60;;;;;;2111480;28;20079;-74
2020/12/12 03:39:31;;;;;;;7.47;6.20;;;9.60;68.60;;;;;;2112132;28;20024;-74
2020/12/12 03:40:52;;;;;;;7.60;6.07;;;9.60;68.60;;;;;;2113371;28;20067;-74
2020/12/12 03:42:13;;;;;;;7.70;5.78;;;9.60;68.60;;;;;;2113592;28;20024;-74
2020/12/12 03:43:34;;;;;;;7.55;5.80;;;9.60;68.70;;;;;;2113112;28;20027;-73
2020/12/12 03:44:55;;;;;;;7.07;5.78;;;9.70;68.70;;;;;;2111350;28;20106;-73
2020/12/12 03:46:16;;;;;;;6.65;5.97;;;9.70;68.70;;;;;;2109706;28;20055;-73
2020/12/12 03:47:36;;;;;;;8.98;5.85;;;9.70;68.70;;;;;;2112374;28;20055;-74
2020/12/12 03:48:57;;;;;;;6.05;5.32;;;9.70;68.70;;;;;;2112393;28;20040;-72
2020/12/12 03:50:27;;;;;;;6.53;5.55;;;9.60;68.70;;;;;;2113106;28;20035;-74
2020/12/12 03:51:48;;;;;;;6.85;5.22;;;9.70;68.80;;;;;;2111915;28;20086;-75
2020/12/12 03:53:09;;;;;;;6.55;5.40;;;9.70;68.80;;;;;;2112784;28;20020;-74
2020/12/12 03:54:30;;;;;;;6.60;6.00;;;9.70;68.80;;;;;;2113169;28;20096;-73
2020/12/12 03:55:51;;;;;;;6.95;5.68;;;9.70;68.80;;;;;;2111519;28;20781;-73
2020/12/12 03:57:12;;;;;;;8.98;6.40;;;9.70;68.90;;;;;;2112226;28;20039;-73
2020/12/12 03:58:33;;;;;;;7.43;5.97;;;9.70;68.90;;;;;;2111563;28;20378;-73
2020/12/12 03:59:54;;;;;;;5.93;5.32;;;9.70;68.90;;;;;;2112060;28;20032;-73
2020/12/12 04:01:15;;;;;;;7.85;5.50;;;9.70;69.00;;;;;;2112096;28;20365;-73
2020/12/12 04:02:36;;;;;;;8.35;6.18;;;9.70;69.00;;;;;;2112759;28;20042;-73
2020/12/12 04:03:57;;;;;;;6.00;5.40;;;9.70;69.00;;;;;;2112722;28;20449;-73
2020/12/12 04:05:17;;;;;;;7.80;5.60;;;9.70;69.00;;;;;;2112046;28;20103;-73
2020/12/12 04:06:38;;;;;;;8.07;6.03;;;9.70;69.00;;;;;;2111244;28;20032;-72
2020/12/12 04:08:00;;;;;;;8.57;5.97;;;9.70;69.00;;;;;;2113266;28;20473;-74
2020/12/12 04:09:20;;;;;;;7.40;5.82;;;9.70;69.10;;;;;;2111629;28;20445;-73
2020/12/12 04:10:41;;;;;;;7.15;6.30;;;9.70;69.10;;;;;;2112795;28;20093;-73
2020/12/12 04:12:02;;;;;;;7.40;5.88;;;9.70;69.10;;;;;;2110721;28;20027;-74
2020/12/12 04:13:23;;;;;;;7.43;5.80;;;9.80;69.20;;;;;;2111815;28;20153;-72
2020/12/12 04:14:44;;;;;;;6.30;5.45;;;9.80;69.20;;;;;;2112162;28;20035;-74
2020/12/12 04:16:05;;;;;;;7.18;5.95;;;9.80;69.20;;;;;;2111030;28;20070;-71
2020/12/12 04:17:26;;;;;;;6.97;5.90;;;9.80;69.20;;;;;;2112602;28;20038;-75
2020/12/12 04:18:47;;;;;;;7.32;6.63;;;9.80;69.20;;;;;;2111051;28;20085;-73
2020/12/12 04:20:08;;;;;;;8.35;5.88;;;9.80;69.30;;;;;;2112447;28;20027;-73
2020/12/12 04:21:29;;;;;;;6.85;5.82;;;9.80;69.30;;;;;;2102463;28;20039;-73
2020/12/12 04:22:50;;;;;;;6.05;5.38;;;9.80;69.30;;;;;;2110262;28;20107;-73
2020/12/12 04:24:11;;;;;;;6.03;5.38;;;9.80;69.30;;;;;;2111592;28;20540;-73
2020/12/12 04:25:32;;;;;;;7.38;5.97;;;9.80;69.30;;;;;;2112710;28;20027;-73
2020/12/12 04:26:53;;;;;;;7.28;6.18;;;9.80;69.30;;;;;;2112159;28;20461;-73
2020/12/12 04:28:13;;;;;;;6.00;5.30;;;9.80;69.40;;;;;;2112441;28;20055;-73
2020/12/12 04:29:34;;;;;;;6.82;5.75;;;9.80;69.40;;;;;;2112253;28;20047;-73
2020/12/12 04:30:55;;;;;;;8.65;5.93;;;9.80;69.40;;;;;;2111341;28;20102;-73
2020/12/12 04:32:16;;;;;;;6.95;5.82;;;9.80;69.40;;;;;;2112497;28;20103;-74
2020/12/12 04:33:37;;;;;;;6.93;5.85;;;9.80;69.40;;;;;;2112709;28;20028;-74
2020/12/12 04:34:58;;;;;;;5.35;4.85;;;9.80;69.40;;;;;;2112436;28;20095;-74
2020/12/12 04:36:19;;;;;;;6.25;5.45;;;9.80;69.40;;;;;;2111674;28;20119;-74
2020/12/12 04:37:40;;;;;;;7.05;5.95;;;9.80;69.40;;;;;;2111688;28;20447;-73
2020/12/12 04:39:01;;;;;;;6.32;5.35;;;9.80;69.40;;;;;;2111347;28;20112;-74
2020/12/12 04:40:22;;;;;;;8.15;6.70;;;9.90;69.50;;;;;;2110544;28;20028;-75
2020/12/12 04:41:44;;;;;;;8.63;6.05;;;9.80;69.40;;;;;;2112431;28;20024;-73
2020/12/12 04:43:06;;;;;;;6.57;5.60;;;9.90;69.50;;;;;;2103662;28;20356;-74
2020/12/12 04:44:27;;;;;;;7.15;6.45;;;9.80;69.50;;;;;;2109832;28;20028;-74
2020/12/12 04:45:49;;;;;;;6.35;5.75;;;9.90;69.60;;;;;;2112015;28;20035;-74
2020/12/12 04:47:12;;;;;;;7.10;5.63;;;9.90;69.60;;;;;;2110279;28;20434;-74
2020/12/12 04:48:33;;;;;;;6.50;5.80;;;9.90;69.60;;;;;;2111031;28;20035;-74
2020/12/12 04:49:54;;;;;;;9.35;6.30;;;9.90;69.60;;;;;;2102954;28;20036;-74
2020/12/12 04:51:16;;;;;;;7.28;6.05;;;9.90;69.50;;;;;;2107150;28;20042;-74
2020/12/12 04:52:41;;;;;;;6.15;5.55;;;9.90;69.50;;;;;;2112543;28;20043;-73
2020/12/12 04:54:02;;;;;;;7.32;5.95;;;9.90;69.60;;;;;;2112382;28;20036;-74
2020/12/12 04:55:25;;;;;;;7.78;6.35;;;9.90;69.50;;;;;;2113013;28;20028;-74
2020/12/12 04:56:47;;;;;;;7.45;5.82;;;9.80;69.50;;;;;;2110785;28;20031;-74
2020/12/12 04:58:15;;;;;;;7.05;6.18;;;9.90;69.50;;;;;;2110710;28;20168;-74
2020/12/12 04:59:39;;;;;;;7.78;6.20;;;9.90;69.60;;;;;;2111072;28;20039;-74
2020/12/12 05:01:00;;;;;;;6.93;5.95;;;9.90;69.50;;;;;;2111335;28;20091;-74
2020/12/12 05:02:22;;;;;;;8.18;6.32;;;9.90;69.50;;;;;;2102982;28;20040;-74
2020/12/12 05:03:44;;;;;;;7.70;5.88;;;9.80;69.40;;;;;;2108075;28;20081;-74
2020/12/12 05:05:06;;;;;;;7.13;6.25;;;9.80;69.40;;;;;;2111765;28;20028;-75
2020/12/12 05:06:30;;;;;;;9.13;7.05;;;9.90;69.50;;;;;;2109368;28;20539;-75
2020/12/12 05:07:51;;;;;;;8.65;6.80;;;9.90;69.50;;;;;;2111093;28;20054;-75
2020/12/12 05:09:12;;;;;;;7.60;6.82;;;9.90;69.60;;;;;;2111755;28;20027;-74
2020/12/12 05:10:51;;;;;;;6.80;6.05;;;9.90;69.60;;;;;;2112169;28;20393;-75
2020/12/12 05:12:13;;;;;;;7.47;6.05;;;9.90;69.70;;;;;;2111846;28;20186;-75
2020/12/12 05:13:34;;;;;;;7.05;6.38;;;9.90;69.50;;;;;;2111047;28;20027;-74
2020/12/12 05:14:55;;;;;;;6.80;6.03;;;9.90;69.50;;;;;;2111402;28;20035;-75
2020/12/12 05:16:17;;;;;;;7.15;6.45;;;9.90;69.50;;;;;;2110396;28;20688;-74
2020/12/12 05:17:46;;;;;;;7.30;6.30;;;9.90;69.50;;;;;;2111794;28;20058;-74
2020/12/12 05:19:06;;;;;;;7.88;6.18;;;9.90;69.70;;;;;;2110813;28;20048;-75
2020/12/12 05:20:27;;;;;;;8.00;5.97;;;9.90;69.60;;;;;;2111801;28;20461;-75
2020/12/12 05:21:53;;;;;;;7.05;6.35;;;9.90;69.60;;;;;;2111137;28;20028;-74
2020/12/12 05:23:15;;;;;;;8.07;6.90;;;9.90;69.60;;;;;;2112462;28;20118;-75
2020/12/12 05:24:38;;;;;;;7.13;6.43;;;9.90;69.60;;;;;;2112671;28;20024;-74
2020/12/12 05:25:59;;;;;;;8.18;6.43;;;9.90;69.60;;;;;;2110589;28;20030;-76
2020/12/12 05:27:20;;;;;;;7.47;6.10;;;9.90;69.70;;;;;;2112253;28;20027;-76
2020/12/12 05:28:41;;;;;;;8.27;6.43;;;9.90;69.60;;;;;;2110759;28;20035;-75
2020/12/12 05:30:02;;;;;;;6.78;6.00;;;9.90;69.60;;;;;;2111907;28;20032;-75
2020/12/12 05:31:23;;;;;;;6.90;6.30;;;9.90;69.60;;;;;;2111844;28;20489;-75
2020/12/12 05:32:46;;;;;;;8.48;6.90;;;9.90;69.60;;;;;;2111197;28;20043;-75
2020/12/12 05:34:15;;;;;;;7.03;6.32;;;9.90;69.70;;;;;;2111434;28;20118;-75
2020/12/12 05:35:36;;;;;;;7.47;6.25;;;9.90;69.70;;;;;;2112674;28;20028;-75
2020/12/12 05:36:57;;;;;;;7.78;6.70;;;9.90;69.60;;;;;;2111695;28;20031;-75
2020/12/12 05:38:19;;;;;;;7.65;6.25;;;9.90;69.60;;;;;;2111437;28;20429;-75
2020/12/12 05:39:40;;;;;;;8.52;6.85;;;9.90;69.60;;;;;;2110627;28;20023;-76
2020/12/12 05:41:01;;;;;;;8.35;7.20;;;9.90;69.60;;;;;;2102478;28;20170;-75
2020/12/12 05:42:22;;;;;;;7.65;6.72;;;9.90;69.60;;;;;;2108579;28;20100;-75
2020/12/12 05:43:44;;;;;;;9.32;6.65;;;9.90;69.60;;;;;;2111605;28;20618;-75
2020/12/12 05:45:06;;;;;;;8.85;6.38;;;9.90;69.60;;;;;;2111757;28;20034;-76
2020/12/12 05:46:28;;;;;;;8.60;6.85;;;9.90;69.70;;;;;;2110072;28;21860;-75
2020/12/12 05:47:49;;;;;;;10.13;7.32;;;9.90;69.70;;;;;;2111508;28;20031;-75
2020/12/12 05:49:10;;;;;;;7.82;6.47;;;9.90;69.70;;;;;;2110936;28;20066;-75
2020/12/12 05:50:31;;;;;;;8.77;7.25;;;9.90;69.70;;;;;;2111117;28;20050;-75
2020/12/12 05:51:52;;;;;;;7.72;6.93;;;10.00;69.80;;;;;;2110990;28;20544;-75
2020/12/12 05:53:16;;;;;;;7.13;6.43;;;9.90;69.70;;;;;;2110541;28;20046;-75
2020/12/12 05:54:37;;;;;;;8.27;7.20;;;10.00;69.90;;;;;;2111543;28;20088;-75
2020/12/12 05:55:58;;;;;;;10.15;7.45;;;10.00;69.80;;;;;;2111542;28;20111;-74
2020/12/12 05:57:21;;;;;;;7.22;6.20;;;9.90;69.70;;;;;;2110899;28;20124;-76
2020/12/12 05:58:45;;;;;;;8.43;6.72;;;10.00;69.80;;;;;;2110997;28;20024;-76
2020/12/12 05:59:55;;;;;;;7.93;7.13;;;10.00;69.80;;;;;;2107867;28;20051;-76
2020/12/12 06:00:55;;;;;;;10.57;7.47;;;9.90;69.80;;;;;;2106643;28;20024;-75
2020/12/12 06:01:58;;;;;;;8.65;7.43;;;9.90;69.90;;;;;;2105445;28;20036;-75
2020/12/12 06:03:30;;;;;;;8.70;7.25;;;10.00;70.00;;;;;;2112360;28;20027;-75
2020/12/12 06:04:35;;;;;;;8.90;7.30;;;10.00;70.10;;;;;;2104343;28;20035;-75
2020/12/12 06:05:46;;;;;;;9.05;7.30;;;10.00;70.00;;;;;;2112526;28;20041;-75
2020/12/12 06:06:47;;;;;;;9.02;7.47;;;10.00;70.00;;;;;;2112244;28;20805;-74
2020/12/12 06:07:58;;;;;;;9.55;7.43;;;10.00;70.00;;;;;;2112070;28;20037;-75
2020/12/12 06:09:07;;;;;;;7.90;7.10;;;10.00;70.00;;;;;;2111501;28;20092;-74
2020/12/12 06:10:07;;;;;;;9.13;7.43;;;10.00;70.10;;;;;;2100181;28;20027;-75
2020/12/12 06:11:09;;;;;;;8.60;7.38;;;10.00;70.00;;;;;;2100214;28;20028;-74
2020/12/12 06:12:10;;;;;;;7.43;6.68;;;10.10;70.00;;;;;;2112652;28;20015;-75
2020/12/12 06:13:10;;;;;;;8.70;7.80;;;10.00;70.00;;;;;;2112148;28;20111;-74
2020/12/12 06:14:12;;;;;;;8.85;7.35;;;10.10;70.10;;;;;;2112037;28;20024;-75
2020/12/12 06:15:18;;;;;;;8.93;7.95;;;10.00;70.10;;;;;;2112291;28;20022;-74
2020/12/12 06:16:24;;;;;;;8.70;7.82;;;10.00;70.10;;;;;;2111224;28;20078;-74
2020/12/12 06:17:58;;;;;;;10.18;7.68;;;10.10;70.10;;;;;;2111477;28;20020;-74
2020/12/12 06:19:14;;;;;;;10.40;7.43;;;10.10;70.20;;;;;;2111864;28;20121;-73
2020/12/12 06:20:16;;;;;;;8.00;6.68;;;10.10;70.10;;;;;;2112429;28;20020;-75
2020/12/12 06:21:22;;;;;;;8.50;6.90;;;10.10;70.00;;;;;;2103151;28;20020;-75
2020/12/12 06:22:26;;;;;;;8.50;7.18;;;10.10;70.00;;;;;;2103589;28;20028;-74
2020/12/12 06:23:27;;;;;;;8.27;7.45;;;10.10;70.00;;;;;;2103308;28;20621;-74
2020/12/12 06:24:32;;;;;;;10.00;8.20;;;10.10;70.00;;;;;;2103471;28;20111;-74
2020/12/12 06:25:32;;;;;;;10.80;8.02;;;10.10;70.00;;;;;;2112059;28;20023;-75
2020/12/12 06:26:44;;;;;;;10.25;7.38;;;10.10;70.00;;;;;;2111460;28;20032;-74
2020/12/12 06:27:51;;;;;;;8.30;6.80;;;10.10;70.00;;;;;;2112664;28;20111;-74
2020/12/12 06:28:53;;;;;;;8.13;7.32;;;10.10;70.00;;;;;;2100886;28;20463;-74
2020/12/12 06:29:54;;;;;;;8.80;7.57;;;10.10;70.00;;;;;;2100477;28;20047;-74
2020/12/12 06:30:58;;;;;;;8.70;7.20;;;10.10;70.00;;;;;;2112104;28;20470;-75
2020/12/12 06:31:59;;;;;;;9.35;7.45;;;10.10;70.00;;;;;;2111561;28;20063;-75
2020/12/12 06:33:01;;;;;;;9.82;8.57;;;10.10;70.00;;;;;;2103518;28;20016;-75
2020/12/12 06:34:03;;;;;;;10.90;8.18;;;10.10;70.00;;;;;;2104484;28;20020;-75
2020/12/12 06:35:04;;;;;;;9.52;7.90;;;10.10;70.00;;;;;;2111542;28;20034;-75
2020/12/12 06:36:25;;;;;;;8.68;7.55;;;10.10;70.00;;;;;;2112673;28;20126;-75
2020/12/12 06:37:32;;;;;;;10.20;7.32;;;10.10;70.10;;;;;;2104400;28;20139;-75
2020/12/12 06:38:33;;;;;;;9.27;8.07;;;10.10;69.90;;;;;;2106378;28;20590;-75
2020/12/12 06:39:54;;;;;;;9.07;7.50;;;10.10;69.90;;;;;;2114056;28;20085;-75
2020/12/12 06:40:58;;;;;;;9.18;7.82;;;10.20;70.00;;;;;;2113742;28;20044;-75
2020/12/12 06:41:59;;;;;;;8.02;7.22;;;10.20;69.90;;;;;;2105299;28;20020;-75
2020/12/12 06:43:00;;;;;;;8.13;7.13;;;10.20;69.90;;;;;;2105449;28;20454;-75
2020/12/12 06:44:00;;;;;;;9.07;7.05;;;10.20;69.90;;;;;;2114297;28;20047;-75
2020/12/12 06:45:23;;;;;;;9.43;7.65;;;10.20;69.90;;;;;;2113906;28;20107;-75
2020/12/12 06:46:51;;;;;;;9.57;7.28;;;10.20;69.90;;;;;;2112491;28;20130;-74
2020/12/12 06:47:53;;;;;;;8.35;7.43;;;10.20;70.00;;;;;;2113336;28;20032;-74
2020/12/12 06:49:08;;;;;;;8.93;7.25;;;10.20;69.80;;;;;;2113091;28;20111;-74
2020/12/12 06:50:13;;;;;;;9.70;7.38;;;10.20;69.90;;;;;;2111397;28;20038;-74
2020/12/12 06:51:13;;;;;;;9.85;7.82;;;10.20;69.70;;;;;;2105547;28;20353;-74
2020/12/12 06:52:28;;;;;;;9.88;7.22;;;10.20;69.80;;;;;;2113705;28;20035;-75
2020/12/12 06:53:31;;;;;;;10.70;7.65;;;10.20;69.90;;;;;;2113342;28;20032;-74
2020/12/12 06:54:31;;;;;;;9.77;8.13;;;10.20;69.90;;;;;;2112164;28;20114;-74
2020/12/12 06:55:32;;;;;;;10.30;7.65;;;10.20;69.80;;;;;;2105375;28;20012;-74